Time;durP1;ratioP1;P1;durP2;ratioP2;P2;SDS_P1;SDS_P2;PMS_P1;PMS_P2;Temp;Humidity;BMP_temperature;BMP_pressure;BME280_temperature;BME280_humidity;BME280_pressure;Samples;Min_cycle;Max_cycle;Signal;HPM_P1;HPM_P2
2023/12/01 00:00:20;;;;;;;8.23;3.45;;;;;;;;;;5005417;28;99895;-65
2023/12/01 00:02:47;;;;;;;8.93;3.78;;;;;;;;;;5004976;28;100248;-65
2023/12/01 00:05:14;;;;;;;9.80;4.05;;;;;;;;;;5004799;28;98923;-65
2023/12/01 00:07:40;;;;;;;9.32;4.13;;;;;;;;;;5004113;28;99520;-65
2023/12/01 00:10:11;;;;;;;9.60;4.07;;;;;;;;;;4984782;28;99719;-65
2023/12/01 00:12:37;;;;;;;9.32;4.53;;;;;;;;;;4985224;28;98603;-65
2023/12/01 00:15:05;;;;;;;8.85;3.83;;;;;;;;;;4996212;28;99940;-65
2023/12/01 00:17:32;;;;;;;9.07;4.43;;;;;;;;;;5003731;28;98693;-65
2023/12/01 00:19:59;;;;;;;9.70;4.20;;;;;;;;;;5003524;28;99843;-65
2023/12/01 00:22:25;;;;;;;9.73;4.40;;;;;;;;;;5004973;28;99094;-65
2023/12/01 00:24:52;;;;;;;10.68;4.65;;;;;;;;;;5004530;28;98524;-65
2023/12/01 00:27:18;;;;;;;13.75;4.30;;;;;;;;;;5004766;28;98745;-65
2023/12/01 00:29:45;;;;;;;12.02;4.50;;;;;;;;;;4985553;28;101736;-65
2023/12/01 00:32:11;;;;;;;10.20;4.40;;;;;;;;;;5005363;28;98143;-65
2023/12/01 00:34:38;;;;;;;10.73;4.22;;;;;;;;;;5004759;28;98903;-65
2023/12/01 00:37:04;;;;;;;9.65;4.57;;;;;;;;;;4989659;28;100658;-65
2023/12/01 00:39:31;;;;;;;10.43;4.82;;;;;;;;;;5003356;28;99592;-65
2023/12/01 00:41:57;;;;;;;10.45;4.80;;;;;;;;;;4986231;28;102085;-65
2023/12/01 00:44:24;;;;;;;10.13;4.63;;;;;;;;;;5005354;28;99210;-65
2023/12/01 00:46:50;;;;;;;9.90;4.63;;;;;;;;;;5004960;28;99061;-66
2023/12/01 00:49:17;;;;;;;9.60;4.65;;;;;;;;;;5004298;28;100525;-66
2023/12/01 00:51:45;;;;;;;9.52;4.40;;;;;;;;;;5003944;28;105636;-65
2023/12/01 00:54:12;;;;;;;10.80;5.10;;;;;;;;;;4986524;28;100921;-66
2023/12/01 00:56:38;;;;;;;17.23;4.60;;;;;;;;;;5004636;28;98784;-65
2023/12/01 00:59:05;;;;;;;23.08;5.60;;;;;;;;;;5007384;28;98643;-65
2023/12/01 01:01:33;;;;;;;11.07;4.68;;;;;;;;;;5003301;28;100177;-65
2023/12/01 01:03:59;;;;;;;13.88;4.85;;;;;;;;;;5004484;28;99777;-65
2023/12/01 01:06:26;;;;;;;12.75;4.50;;;;;;;;;;5004507;28;99443;-65
2023/12/01 01:08:53;;;;;;;11.95;4.90;;;;;;;;;;5004391;28;99757;-65
2023/12/01 01:11:19;;;;;;;11.25;5.00;;;;;;;;;;5004601;28;98583;-65
2023/12/01 01:13:48;;;;;;;10.45;4.68;;;;;;;;;;5003369;28;100347;-65
2023/12/01 01:16:15;;;;;;;10.43;4.53;;;;;;;;;;5003798;28;99102;-65
2023/12/01 01:18:42;;;;;;;10.93;4.78;;;;;;;;;;5004684;28;98533;-65
2023/12/01 01:21:08;;;;;;;9.63;4.43;;;;;;;;;;5007158;28;98798;-65
2023/12/01 01:23:35;;;;;;;10.70;4.57;;;;;;;;;;5004016;27;98696;-65
2023/12/01 01:26:02;;;;;;;9.10;4.28;;;;;;;;;;5004369;27;98786;-65
2023/12/01 01:28:29;;;;;;;;;;;;;;;;;;5002511;28;103166;-64
2023/12/01 01:30:57;;;;;;;9.63;4.10;;;;;;;;;;5005096;28;106960;-64
2023/12/01 01:33:24;;;;;;;9.85;3.83;;;;;;;;;;5004632;27;98852;-65
2023/12/01 01:35:50;;;;;;;9.38;4.05;;;;;;;;;;5001546;28;101733;-65
2023/12/01 01:38:17;;;;;;;9.50;4.25;;;;;;;;;;5004168;27;98539;-65
2023/12/01 01:40:43;;;;;;;10.82;4.15;;;;;;;;;;4986764;28;100006;-65
2023/12/01 01:43:18;;;;;;;9.15;4.07;;;;;;;;;;5006965;28;100545;-65
2023/12/01 01:45:44;;;;;;;8.85;4.03;;;;;;;;;;5003883;28;99450;-65
2023/12/01 01:48:11;;;;;;;9.95;4.40;;;;;;;;;;5003588;28;99061;-65
2023/12/01 01:50:37;;;;;;;9.90;4.22;;;;;;;;;;5003544;28;98572;-65
2023/12/01 01:53:04;;;;;;;11.43;4.43;;;;;;;;;;5003701;28;99598;-65
2023/12/01 01:55:30;;;;;;;9.32;4.20;;;;;;;;;;5002227;28;100318;-65
2023/12/01 01:57:57;;;;;;;8.95;3.85;;;;;;;;;;4985449;28;98799;-65
2023/12/01 02:00:24;;;;;;;9.15;3.83;;;;;;;;;;4985343;28;101894;-65
2023/12/01 02:02:50;;;;;;;9.40;3.85;;;;;;;;;;4985027;28;100164;-65
2023/12/01 02:05:17;;;;;;;9.15;3.80;;;;;;;;;;4988070;28;98915;-65
2023/12/01 02:07:44;;;;;;;10.90;4.10;;;;;;;;;;4984024;28;101851;-65
2023/12/01 02:10:15;;;;;;;11.10;4.15;;;;;;;;;;5003615;28;98206;-65
2023/12/01 02:12:45;;;;;;;8.32;3.50;;;;;;;;;;5003690;28;98524;-65
2023/12/01 02:15:12;;;;;;;9.98;3.92;;;;;;;;;;4984120;28;100540;-65
2023/12/01 02:17:39;;;;;;;9.60;4.10;;;;;;;;;;5001953;28;99332;-65
2023/12/01 02:20:06;;;;;;;10.77;4.15;;;;;;;;;;5003483;28;100378;-65
2023/12/01 02:22:33;;;;;;;;;;;;;;;;;;5003354;28;100379;-64
2023/12/01 02:24:59;;;;;;;10.23;4.32;;;;;;;;;;5007826;28;100246;-64
2023/12/01 02:27:26;;;;;;;11.90;4.57;;;;;;;;;;5002949;28;99702;-65
2023/12/01 02:29:52;;;;;;;11.95;4.03;;;;;;;;;;5002380;28;99193;-65
2023/12/01 02:32:19;;;;;;;11.43;4.28;;;;;;;;;;5001396;28;101276;-65
2023/12/01 02:34:45;;;;;;;10.98;4.20;;;;;;;;;;5003283;28;98172;-65
2023/12/01 02:37:12;;;;;;;10.93;3.90;;;;;;;;;;5001920;28;99095;-65
2023/12/01 02:39:38;;;;;;;10.20;4.15;;;;;;;;;;5001567;28;98850;-65
2023/12/01 02:42:05;;;;;;;11.27;4.63;;;;;;;;;;4984319;28;102135;-65
2023/12/01 02:44:32;;;;;;;11.15;4.28;;;;;;;;;;5003337;28;98799;-65
2023/12/01 02:46:58;;;;;;;10.65;4.05;;;;;;;;;;5004332;28;100164;-65
2023/12/01 02:49:25;;;;;;;10.90;4.50;;;;;;;;;;4985063;28;98771;-65
2023/12/01 02:51:51;;;;;;;10.77;4.40;;;;;;;;;;5002589;28;100127;-65
2023/12/01 02:54:18;;;;;;;12.65;4.68;;;;;;;;;;4984048;28;100244;-65
2023/12/01 02:56:44;;;;;;;11.50;4.38;;;;;;;;;;5003106;28;98936;-65
2023/12/01 02:59:10;;;;;;;11.27;5.00;;;;;;;;;;4985241;28;101961;-65
2023/12/01 03:01:37;;;;;;;12.27;5.00;;;;;;;;;;5001068;28;100316;-65
2023/12/01 03:04:04;;;;;;;11.82;4.90;;;;;;;;;;4984460;28;101185;-65
2023/12/01 03:06:30;;;;;;;12.93;5.13;;;;;;;;;;5002555;28;99577;-65
2023/12/01 03:08:57;;;;;;;12.82;5.53;;;;;;;;;;5005465;28;100509;-66
2023/12/01 03:11:24;;;;;;;16.83;6.00;;;;;;;;;;4984213;28;100054;-66
2023/12/01 03:13:50;;;;;;;15.68;5.80;;;;;;;;;;5002212;28;99953;-66
2023/12/01 03:16:17;;;;;;;14.18;5.97;;;;;;;;;;4984184;28;98638;-66
2023/12/01 03:18:44;;;;;;;15.68;5.57;;;;;;;;;;5002690;28;99826;-66
2023/12/01 03:21:12;;;;;;;14.63;5.82;;;;;;;;;;5002236;28;100389;-65
2023/12/01 03:23:41;;;;;;;17.10;6.15;;;;;;;;;;5006177;27;97985;-65
2023/12/01 03:26:08;;;;;;;14.88;6.18;;;;;;;;;;5004491;28;100778;-65
2023/12/01 03:28:34;;;;;;;14.23;5.95;;;;;;;;;;5005904;28;100332;-65
2023/12/01 03:31:01;;;;;;;14.70;6.50;;;;;;;;;;5007351;28;99729;-65
2023/12/01 03:33:28;;;;;;;15.02;6.30;;;;;;;;;;5003919;28;100395;-66
2023/12/01 03:35:54;;;;;;;16.55;6.63;;;;;;;;;;5005659;28;98609;-65
2023/12/01 03:38:21;;;;;;;17.15;6.97;;;;;;;;;;5005714;27;100973;-65
2023/12/01 03:40:48;;;;;;;16.17;6.57;;;;;;;;;;5005042;28;99123;-65
2023/12/01 03:43:14;;;;;;;15.60;6.57;;;;;;;;;;4987744;28;99027;-66
2023/12/01 03:45:41;;;;;;;15.35;6.70;;;;;;;;;;5004798;28;100137;-66
2023/12/01 03:48:07;;;;;;;17.48;7.13;;;;;;;;;;5005960;28;99785;-66
2023/12/01 03:50:34;;;;;;;16.65;6.88;;;;;;;;;;5006365;28;99343;-66
2023/12/01 03:53:00;;;;;;;19.17;7.32;;;;;;;;;;5009143;28;99380;-66
2023/12/01 03:55:27;;;;;;;18.55;7.22;;;;;;;;;;5004672;28;99304;-66
2023/12/01 03:57:53;;;;;;;17.88;7.65;;;;;;;;;;5004551;28;101091;-66
2023/12/01 04:00:22;;;;;;;18.13;7.95;;;;;;;;;;4986995;28;100216;-66
2023/12/01 04:02:49;;;;;;;18.90;7.85;;;;;;;;;;4998230;28;98812;-66
2023/12/01 04:05:21;;;;;;;17.30;7.38;;;;;;;;;;4985330;28;100107;-66
2023/12/01 04:07:53;;;;;;;17.20;7.25;;;;;;;;;;4966524;28;100640;-65
2023/12/01 04:10:23;;;;;;;17.85;7.57;;;;;;;;;;4985180;28;98994;-66
2023/12/01 04:12:50;;;;;;;18.27;7.70;;;;;;;;;;4967828;28;101896;-66
2023/12/01 04:15:18;;;;;;;16.35;7.10;;;;;;;;;;4987536;28;99177;-66
2023/12/01 04:17:46;;;;;;;19.27;7.72;;;;;;;;;;4966776;28;100029;-66
2023/12/01 04:20:35;;;;;;;18.80;8.02;;;;;;;;;;4993874;28;100155;-66
2023/12/01 04:23:12;;;;;;;19.77;8.38;;;;;;;;;;4987198;28;98582;-65
2023/12/01 04:25:39;;;;;;;19.33;8.23;;;;;;;;;;5001888;27;100098;-65
2023/12/01 04:28:06;;;;;;;17.80;8.50;;;;;;;;;;5004911;27;99084;-66
2023/12/01 04:30:34;;;;;;;17.00;7.70;;;;;;;;;;5005026;27;98760;-66
2023/12/01 04:33:01;;;;;;;19.05;8.18;;;;;;;;;;5005175;27;99789;-65
2023/12/01 04:35:28;;;;;;;19.58;7.85;;;;;;;;;;5007324;27;100408;-65
2023/12/01 04:37:55;;;;;;;;;;;;;;;;;;5006338;28;103940;-65
2023/12/01 04:40:23;;;;;;;21.90;8.80;;;;;;;;;;5005540;28;100132;-65
2023/12/01 04:42:50;;;;;;;20.83;8.77;;;;;;;;;;5005264;28;98688;-65
2023/12/01 04:45:18;;;;;;;18.15;7.65;;;;;;;;;;5004305;28;99860;-65
2023/12/01 04:47:46;;;;;;;20.83;8.20;;;;;;;;;;5004385;28;99068;-65
2023/12/01 04:50:13;;;;;;;21.80;8.57;;;;;;;;;;5004179;28;98834;-65
2023/12/01 04:52:43;;;;;;;21.13;9.00;;;;;;;;;;5004997;28;100012;-65
2023/12/01 04:55:13;;;;;;;20.75;8.60;;;;;;;;;;5003950;28;99355;-65
2023/12/01 04:57:40;;;;;;;20.38;8.93;;;;;;;;;;4989207;28;98840;-65
2023/12/01 05:00:20;;;;;;;21.02;8.32;;;;;;;;;;5004375;28;99506;-65
2023/12/01 05:02:54;;;;;;;23.08;9.43;;;;;;;;;;4987345;28;97997;-65
2023/12/01 05:05:21;;;;;;;21.63;9.10;;;;;;;;;;4985036;28;98690;-65
2023/12/01 05:07:51;;;;;;;20.67;9.32;;;;;;;;;;4983323;28;100714;-65
2023/12/01 05:10:20;;;;;;;21.08;8.88;;;;;;;;;;4983740;28;99575;-65
2023/12/01 05:12:50;;;;;;;21.38;9.02;;;;;;;;;;4984244;28;100046;-65
2023/12/01 05:15:18;;;;;;;20.98;8.85;;;;;;;;;;4983024;28;100229;-65
2023/12/01 05:17:49;;;;;;;19.98;8.45;;;;;;;;;;4983678;28;98510;-65
2023/12/01 05:20:16;;;;;;;20.25;9.38;;;;;;;;;;4997738;28;99108;-65
2023/12/01 05:22:44;;;;;;;19.25;8.07;;;;;;;;;;5002818;28;98607;-65
2023/12/01 05:25:16;;;;;;;21.42;8.75;;;;;;;;;;5004636;28;99800;-65
2023/12/01 05:27:44;;;;;;;21.17;9.45;;;;;;;;;;5003440;27;99371;-66
2023/12/01 05:30:12;;;;;;;22.85;8.82;;;;;;;;;;5004479;27;98917;-66
2023/12/01 05:32:39;;;;;;;19.90;8.25;;;;;;;;;;5004138;27;99156;-66
2023/12/01 05:35:10;;;;;;;20.17;8.52;;;;;;;;;;5003395;28;99772;-66
2023/12/01 05:37:38;;;;;;;21.92;8.98;;;;;;;;;;5003587;28;98829;-66
2023/12/01 05:40:09;;;;;;;20.85;8.70;;;;;;;;;;5004140;28;99078;-66
2023/12/01 05:42:36;;;;;;;20.20;8.82;;;;;;;;;;5006747;28;100586;-65
2023/12/01 05:45:04;;;;;;;20.30;9.07;;;;;;;;;;5003808;28;100482;-65
2023/12/01 05:47:31;;;;;;;20.60;9.18;;;;;;;;;;4984954;28;99865;-65
2023/12/01 05:49:57;;;;;;;22.52;9.18;;;;;;;;;;5003001;28;98532;-65
2023/12/01 05:52:24;;;;;;;20.90;9.02;;;;;;;;;;5004044;28;98997;-65
2023/12/01 05:54:52;;;;;;;22.90;9.52;;;;;;;;;;5003699;28;99124;-65
2023/12/01 05:57:19;;;;;;;21.58;8.90;;;;;;;;;;5004148;28;99223;-65
2023/12/01 05:59:46;;;;;;;20.90;8.75;;;;;;;;;;4997761;28;99609;-65
2023/12/01 06:02:12;;;;;;;20.13;8.30;;;;;;;;;;4983291;28;100461;-65
2023/12/01 06:04:39;;;;;;;18.75;8.45;;;;;;;;;;4968883;28;101066;-65
2023/12/01 06:07:07;;;;;;;18.67;7.93;;;;;;;;;;4983687;28;99330;-65
2023/12/01 06:09:37;;;;;;;18.60;7.82;;;;;;;;;;4983004;28;98682;-65
2023/12/01 06:12:04;;;;;;;18.25;7.97;;;;;;;;;;4983442;28;99976;-65
2023/12/01 06:14:31;;;;;;;18.42;8.13;;;;;;;;;;4982887;28;100121;-65
2023/12/01 06:16:57;;;;;;;19.42;8.43;;;;;;;;;;4976866;28;98642;-65
2023/12/01 06:19:25;;;;;;;18.33;7.75;;;;;;;;;;4972790;28;100920;-65
2023/12/01 06:21:53;;;;;;;18.10;7.78;;;;;;;;;;5002185;28;99129;-65
2023/12/01 06:24:21;;;;;;;17.05;7.43;;;;;;;;;;5003038;28;99525;-65
2023/12/01 06:26:48;;;;;;;18.48;7.70;;;;;;;;;;5006088;27;100757;-64
2023/12/01 06:29:15;;;;;;;17.35;7.57;;;;;;;;;;5003645;28;98506;-65
2023/12/01 06:31:41;;;;;;;16.17;7.70;;;;;;;;;;5002345;27;100032;-64
2023/12/01 06:34:08;;;;;;;17.58;7.50;;;;;;;;;;5003677;28;99406;-65
2023/12/01 06:36:34;;;;;;;16.60;7.72;;;;;;;;;;5003466;28;98503;-65
2023/12/01 06:39:10;;;;;;;17.17;7.60;;;;;;;;;;5003995;28;99007;-65
2023/12/01 06:41:37;;;;;;;17.67;7.40;;;;;;;;;;5002888;28;98799;-65
2023/12/01 06:44:04;;;;;;;18.02;7.63;;;;;;;;;;5003514;28;100199;-65
2023/12/01 06:46:31;;;;;;;15.05;7.03;;;;;;;;;;5006174;28;100003;-66
2023/12/01 06:48:58;;;;;;;16.83;7.75;;;;;;;;;;5003366;28;99774;-65
2023/12/01 06:51:25;;;;;;;15.70;7.45;;;;;;;;;;5003706;28;99634;-65
2023/12/01 06:53:51;;;;;;;15.88;7.28;;;;;;;;;;5002134;28;100526;-65
2023/12/01 06:56:18;;;;;;;16.60;7.55;;;;;;;;;;5005741;28;98821;-66
2023/12/01 06:58:44;;;;;;;16.58;7.43;;;;;;;;;;5000366;28;99264;-65
2023/12/01 07:01:18;;;;;;;16.30;7.05;;;;;;;;;;4987410;28;100592;-65
2023/12/01 07:03:45;;;;;;;17.13;7.68;;;;;;;;;;4969193;28;99551;-66
2023/12/01 07:06:12;;;;;;;15.82;7.22;;;;;;;;;;4987902;28;98812;-65
2023/12/01 07:08:40;;;;;;;16.15;6.72;;;;;;;;;;4990657;28;105497;-66
2023/12/01 07:11:06;;;;;;;17.77;7.20;;;;;;;;;;4987631;28;98728;-66
2023/12/01 07:13:33;;;;;;;17.33;7.00;;;;;;;;;;4986106;28;99779;-66
2023/12/01 07:16:09;;;;;;;15.82;6.68;;;;;;;;;;4987196;28;98515;-66
2023/12/01 07:18:37;;;;;;;16.13;6.50;;;;;;;;;;4987749;28;99861;-66
2023/12/01 07:21:06;;;;;;;14.90;6.35;;;;;;;;;;5007183;28;99708;-66
2023/12/01 07:23:34;;;;;;;15.80;6.15;;;;;;;;;;5005375;28;98860;-65
2023/12/01 07:26:00;;;;;;;22.63;6.47;;;;;;;;;;5006496;27;100162;-66
2023/12/01 07:28:27;;;;;;;17.13;6.10;;;;;;;;;;5006850;27;100376;-65
2023/12/01 07:30:54;;;;;;;14.77;6.88;;;;;;;;;;5010813;28;98068;-66
2023/12/01 07:33:20;;;;;;;16.77;6.75;;;;;;;;;;5007701;28;100530;-65
2023/12/01 07:35:47;;;;;;;16.05;6.50;;;;;;;;;;5005742;27;98534;-66
2023/12/01 07:38:16;;;;;;;18.70;7.32;;;;;;;;;;5007517;28;99463;-66
2023/12/01 07:40:42;;;;;;;17.23;6.43;;;;;;;;;;5006855;28;99262;-66
2023/12/01 07:43:11;;;;;;;18.02;6.20;;;;;;;;;;5006984;28;98855;-66
2023/12/01 07:45:38;;;;;;;14.60;6.00;;;;;;;;;;5005790;28;100176;-67
2023/12/01 07:48:04;;;;;;;15.65;5.75;;;;;;;;;;5006717;28;99120;-67
2023/12/01 07:50:31;;;;;;;13.98;5.72;;;;;;;;;;5006916;28;99080;-68
2023/12/01 07:52:57;;;;;;;13.65;6.03;;;;;;;;;;5010029;28;98953;-68
2023/12/01 07:55:24;;;;;;;14.02;5.88;;;;;;;;;;4988732;28;99622;-67
2023/12/01 07:57:51;;;;;;;12.63;5.38;;;;;;;;;;4993341;28;98585;-68
2023/12/01 08:00:18;;;;;;;13.02;5.25;;;;;;;;;;5001528;28;99117;-68
2023/12/01 08:02:46;;;;;;;20.92;5.72;;;;;;;;;;5005902;28;99356;-66
2023/12/01 08:05:15;;;;;;;13.48;5.03;;;;;;;;;;5006012;28;98779;-67
2023/12/01 08:07:45;;;;;;;12.98;5.10;;;;;;;;;;5002098;28;98985;-66
2023/12/01 08:10:14;;;;;;;11.27;4.57;;;;;;;;;;5001556;28;99307;-66
2023/12/01 08:12:44;;;;;;;11.13;4.30;;;;;;;;;;4983411;28;99175;-66
2023/12/01 08:15:10;;;;;;;11.98;4.72;;;;;;;;;;4985664;28;100436;-66
2023/12/01 08:17:38;;;;;;;11.02;4.80;;;;;;;;;;4983647;28;100243;-66
2023/12/01 08:20:08;;;;;;;10.02;4.78;;;;;;;;;;4990646;28;99099;-66
2023/12/01 08:22:37;;;;;;;10.30;4.47;;;;;;;;;;4984638;28;99255;-66
2023/12/01 08:25:04;;;;;;;9.35;4.40;;;;;;;;;;4985512;28;99923;-65
2023/12/01 08:27:33;;;;;;;10.25;4.50;;;;;;;;;;4983973;28;100954;-67
2023/12/01 08:29:59;;;;;;;10.60;4.28;;;;;;;;;;4983070;28;98686;-66
2023/12/01 08:32:26;;;;;;;10.45;4.40;;;;;;;;;;4983162;28;99173;-67
2023/12/01 08:34:54;;;;;;;10.38;4.43;;;;;;;;;;4983448;28;99814;-67
2023/12/01 08:37:21;;;;;;;9.02;3.83;;;;;;;;;;4987118;28;98781;-67
2023/12/01 08:39:49;;;;;;;9.73;4.20;;;;;;;;;;4991916;28;99771;-65
2023/12/01 08:42:16;;;;;;;9.25;4.03;;;;;;;;;;5003119;28;98970;-65
2023/12/01 08:44:42;;;;;;;9.07;4.18;;;;;;;;;;5003480;28;100295;-66
2023/12/01 08:47:09;;;;;;;9.70;4.20;;;;;;;;;;5003699;28;99795;-66
2023/12/01 08:49:36;;;;;;;9.60;3.95;;;;;;;;;;5003086;28;98878;-66
2023/12/01 08:52:03;;;;;;;9.30;4.05;;;;;;;;;;5003776;28;99427;-66
2023/12/01 08:54:29;;;;;;;8.38;3.78;;;;;;;;;;5003940;28;99263;-66
2023/12/01 08:56:58;;;;;;;9.73;4.07;;;;;;;;;;4990790;28;98787;-66
2023/12/01 08:59:25;;;;;;;8.85;3.70;;;;;;;;;;4983847;28;99342;-66
2023/12/01 09:01:51;;;;;;;8.68;3.65;;;;;;;;;;4983568;28;98842;-66
2023/12/01 09:04:18;;;;;;;8.90;3.85;;;;;;;;;;4983708;28;100362;-66
2023/12/01 09:06:45;;;;;;;8.60;3.60;;;;;;;;;;4965816;28;100343;-66
2023/12/01 09:09:12;;;;;;;8.73;3.67;;;;;;;;;;4984556;28;97740;-65
2023/12/01 09:11:39;;;;;;;8.88;3.63;;;;;;;;;;4964352;28;99545;-67
2023/12/01 09:14:05;;;;;;;11.32;4.82;;;;;;;;;;4983574;28;99123;-67
2023/12/01 09:16:32;;;;;;;8.80;4.13;;;;;;;;;;4982770;28;99761;-67
2023/12/01 09:18:58;;;;;;;8.75;3.80;;;;;;;;;;4998054;28;100027;-67
2023/12/01 09:21:25;;;;;;;8.52;3.78;;;;;;;;;;5002775;28;99062;-68
2023/12/01 09:23:52;;;;;;;10.18;3.70;;;;;;;;;;5002125;28;98808;-65
2023/12/01 09:26:19;;;;;;;9.65;3.70;;;;;;;;;;5002199;28;99144;-66
2023/12/01 09:28:48;;;;;;;8.57;3.63;;;;;;;;;;5003420;28;99069;-65
2023/12/01 09:31:14;;;;;;;8.32;3.60;;;;;;;;;;5002929;28;98952;-67
2023/12/01 09:33:41;;;;;;;8.00;3.35;;;;;;;;;;5002609;28;99325;-67
2023/12/01 09:36:11;;;;;;;8.05;3.25;;;;;;;;;;5003015;28;98923;-67
2023/12/01 09:38:38;;;;;;;8.45;3.30;;;;;;;;;;5002956;28;99396;-67
2023/12/01 09:41:05;;;;;;;7.82;3.15;;;;;;;;;;5005235;28;100850;-67
2023/12/01 09:43:31;;;;;;;7.90;3.33;;;;;;;;;;5001721;28;100581;-66
2023/12/01 09:45:59;;;;;;;8.05;3.15;;;;;;;;;;5001656;28;99294;-67
2023/12/01 09:48:25;;;;;;;8.15;3.08;;;;;;;;;;5002549;28;98776;-67
2023/12/01 09:50:52;;;;;;;7.53;3.38;;;;;;;;;;5002378;28;100006;-67
2023/12/01 09:53:19;;;;;;;8.80;3.40;;;;;;;;;;5002094;28;99397;-65
2023/12/01 09:55:45;;;;;;;8.50;3.03;;;;;;;;;;4983332;28;98842;-66
2023/12/01 09:58:12;;;;;;;7.35;3.08;;;;;;;;;;4982711;28;99070;-65
2023/12/01 10:00:39;;;;;;;7.18;3.00;;;;;;;;;;4982006;28;99864;-65
2023/12/01 10:03:05;;;;;;;7.47;3.15;;;;;;;;;;4986502;28;98888;-66
2023/12/01 10:05:36;;;;;;;7.13;3.00;;;;;;;;;;4981083;28;100307;-65
2023/12/01 10:08:04;;;;;;;7.28;3.03;;;;;;;;;;4982809;28;98801;-65
2023/12/01 10:10:31;;;;;;;7.47;3.08;;;;;;;;;;4981938;28;99035;-65
2023/12/01 10:12:58;;;;;;;6.85;2.92;;;;;;;;;;4982134;28;99168;-65
2023/12/01 10:15:25;;;;;;;7.10;2.90;;;;;;;;;;4982075;28;98863;-66
2023/12/01 10:17:53;;;;;;;7.78;3.05;;;;;;;;;;4981981;28;100119;-65
2023/12/01 10:20:21;;;;;;;8.27;2.83;;;;;;;;;;4990690;28;99085;-66
2023/12/01 10:22:48;;;;;;;;;;;;;;;;;;5003177;28;98273;-66
2023/12/01 10:25:15;;;;;;;6.40;2.80;;;;;;;;;;5006726;28;98935;-66
2023/12/01 10:27:42;;;;;;;6.47;2.35;;;;;;;;;;5001478;27;99296;-65
2023/12/01 10:30:12;;;;;;;6.53;2.70;;;;;;;;;;5000289;28;99986;-66
2023/12/01 10:32:41;;;;;;;6.00;2.50;;;;;;;;;;5004737;28;105676;-66
2023/12/01 10:35:07;;;;;;;7.15;2.75;;;;;;;;;;5005870;27;98780;-67
2023/12/01 10:37:37;;;;;;;7.00;3.10;;;;;;;;;;5005908;28;98988;-65
2023/12/01 10:40:05;;;;;;;6.22;2.60;;;;;;;;;;5005243;28;100498;-65
2023/12/01 10:42:32;;;;;;;6.95;2.80;;;;;;;;;;5006509;28;98713;-67
2023/12/01 10:45:00;;;;;;;6.40;2.90;;;;;;;;;;5008563;28;100099;-65
2023/12/01 10:47:30;;;;;;;6.35;2.60;;;;;;;;;;5006973;28;98082;-68
2023/12/01 10:49:57;;;;;;;8.00;2.70;;;;;;;;;;5005890;28;102847;-67
2023/12/01 10:52:24;;;;;;;8.27;2.80;;;;;;;;;;5003224;28;99536;-67
2023/12/01 10:54:52;;;;;;;6.57;2.60;;;;;;;;;;4984342;28;99328;-67
2023/12/01 10:57:29;;;;;;;7.72;2.70;;;;;;;;;;4985518;28;99524;-66
2023/12/01 10:59:59;;;;;;;8.13;2.60;;;;;;;;;;4984638;28;104683;-67
2023/12/01 11:02:26;;;;;;;6.57;2.53;;;;;;;;;;4985590;28;98956;-65
2023/12/01 11:04:54;;;;;;;7.45;3.00;;;;;;;;;;4985325;28;100578;-66
2023/12/01 11:07:20;;;;;;;;;;;;;;;;;;4989044;28;99066;-67
2023/12/01 11:10:02;;;;;;;8.35;2.95;;;;;;;;;;4986134;28;110321;-67
2023/12/01 11:12:41;;;;;;;7.45;2.95;;;;;;;;;;4985341;28;99453;-67
2023/12/01 11:15:16;;;;;;;7.05;3.00;;;;;;;;;;4985437;28;99294;-67
2023/12/01 11:17:42;;;;;;;7.10;2.80;;;;;;;;;;4984860;28;99461;-65
2023/12/01 11:20:28;;;;;;;6.93;2.85;;;;;;;;;;4985394;28;100423;-67
2023/12/01 11:23:02;;;;;;;7.32;2.83;;;;;;;;;;5005410;28;98985;-67
2023/12/01 11:25:38;;;;;;;7.03;2.70;;;;;;;;;;5002382;28;98739;-66
2023/12/01 11:28:17;;;;;;;9.15;3.25;;;;;;;;;;4985097;28;104849;-67
2023/12/01 11:31:09;;;;;;;9.45;3.10;;;;;;;;;;4988999;28;98902;-66
2023/12/01 11:33:40;;;;;;;8.00;3.33;;;;;;;;;;4984935;28;99491;-68
2023/12/01 11:36:16;;;;;;;8.40;3.33;;;;;;;;;;4985564;28;98831;-66
2023/12/01 11:39:08;;;;;;;8.82;2.88;;;;;;;;;;4987261;28;100327;-66
2023/12/01 11:41:38;;;;;;;7.82;2.45;;;;;;;;;;5004496;28;100149;-67
2023/12/01 11:44:07;;;;;;;10.93;3.00;;;;;;;;;;5003076;28;99769;-67
2023/12/01 11:46:34;;;;;;;7.75;3.03;;;;;;;;;;5004217;28;100396;-67
2023/12/01 11:49:00;;;;;;;;;;;;;;;;;;5005336;28;100086;-67
2023/12/01 11:51:27;;;;;;;6.93;2.88;;;;;;;;;;4999302;28;102043;-67
2023/12/01 11:53:57;;;;;;;7.20;2.90;;;;;;;;;;4987292;28;99828;-67
2023/12/01 11:56:27;;;;;;;7.43;2.92;;;;;;;;;;4984629;28;98853;-67
2023/12/01 11:58:54;;;;;;;7.82;3.10;;;;;;;;;;4985129;28;99089;-69
2023/12/01 12:01:22;;;;;;;9.02;3.10;;;;;;;;;;4983591;28;100258;-70
2023/12/01 12:03:53;;;;;;;7.45;2.90;;;;;;;;;;4984077;28;98191;-69
2023/12/01 12:06:20;;;;;;;7.47;2.72;;;;;;;;;;4985056;28;99344;-70
2023/12/01 12:08:48;;;;;;;6.00;2.53;;;;;;;;;;4984275;28;99653;-70
2023/12/01 12:11:15;;;;;;;7.05;2.70;;;;;;;;;;4983848;28;99552;-70
2023/12/01 12:13:41;;;;;;;6.57;2.63;;;;;;;;;;4983706;28;99608;-70
2023/12/01 12:16:08;;;;;;;7.68;2.65;;;;;;;;;;4986693;28;100460;-70
2023/12/01 12:18:35;;;;;;;6.47;2.40;;;;;;;;;;4966928;28;99006;-70
2023/12/01 12:21:03;;;;;;;6.13;2.67;;;;;;;;;;4991847;28;99817;-70
2023/12/01 12:23:29;;;;;;;6.80;2.70;;;;;;;;;;4986168;28;98540;-69
2023/12/01 12:26:16;;;;;;;7.00;2.72;;;;;;;;;;5004687;27;99914;-70
2023/12/01 12:28:45;;;;;;;7.05;2.67;;;;;;;;;;5004642;27;98941;-69
2023/12/01 12:31:12;;;;;;;6.63;2.42;;;;;;;;;;5004193;28;98781;-70
2023/12/01 12:33:39;;;;;;;5.47;2.30;;;;;;;;;;5003551;27;99012;-69
2023/12/01 12:36:06;;;;;;;5.65;2.35;;;;;;;;;;5003680;27;99716;-70
2023/12/01 12:38:35;;;;;;;7.35;2.67;;;;;;;;;;5007900;28;98904;-70
2023/12/01 12:41:04;;;;;;;6.50;2.60;;;;;;;;;;5003898;28;100286;-70
2023/12/01 12:43:31;;;;;;;7.25;2.70;;;;;;;;;;5003916;28;98515;-68
2023/12/01 12:46:03;;;;;;;6.63;2.70;;;;;;;;;;5004161;28;100162;-69
2023/12/01 12:48:31;;;;;;;7.78;2.85;;;;;;;;;;5004264;28;99029;-69
2023/12/01 12:50:58;;;;;;;8.20;2.58;;;;;;;;;;4990105;28;98612;-69
2023/12/01 12:53:27;;;;;;;7.40;2.63;;;;;;;;;;4985022;28;99107;-71
2023/12/01 12:55:53;;;;;;;7.15;2.60;;;;;;;;;;4983474;28;99173;-69
2023/12/01 12:58:20;;;;;;;7.43;2.83;;;;;;;;;;4988583;28;98687;-70
2023/12/01 13:00:46;;;;;;;7.13;2.70;;;;;;;;;;4983120;28;101126;-70
2023/12/01 13:03:13;;;;;;;6.32;2.67;;;;;;;;;;4984722;28;98571;-69
2023/12/01 13:05:40;;;;;;;6.47;2.60;;;;;;;;;;4984072;28;99390;-69
2023/12/01 13:08:06;;;;;;;7.30;2.70;;;;;;;;;;4984259;28;99256;-70
2023/12/01 13:10:33;;;;;;;6.07;2.67;;;;;;;;;;4984246;28;98636;-70
2023/12/01 13:12:59;;;;;;;7.15;2.58;;;;;;;;;;4984554;28;99146;-70
2023/12/01 13:15:25;;;;;;;6.47;2.50;;;;;;;;;;4983916;28;99225;-70
2023/12/01 13:17:52;;;;;;;5.55;2.38;;;;;;;;;;4984163;28;98005;-70
2023/12/01 13:20:19;;;;;;;7.30;2.55;;;;;;;;;;4987284;28;98571;-69
2023/12/01 13:22:45;;;;;;;7.07;2.80;;;;;;;;;;4985246;28;98531;-69
2023/12/01 13:25:12;;;;;;;5.97;2.50;;;;;;;;;;4988067;28;99914;-69
2023/12/01 13:27:38;;;;;;;5.75;2.45;;;;;;;;;;5003017;28;99133;-70
2023/12/01 13:30:05;;;;;;;6.80;2.45;;;;;;;;;;5005055;28;99143;-69
2023/12/01 13:32:32;;;;;;;;;;;;;;;;;;5004828;28;98812;-69
2023/12/01 13:34:58;;;;;;;5.88;2.47;;;;;;;;;;5004126;28;116533;-69
2023/12/01 13:37:25;;;;;;;6.32;2.63;;;;;;;;;;5004662;28;99037;-69
2023/12/01 13:39:51;;;;;;;8.55;3.10;;;;;;;;;;5003005;28;99990;-69
2023/12/01 13:42:18;;;;;;;7.00;2.60;;;;;;;;;;5007844;28;98526;-69
2023/12/01 13:44:44;;;;;;;7.57;3.15;;;;;;;;;;5004303;28;99400;-69
2023/12/01 13:47:11;;;;;;;6.65;2.70;;;;;;;;;;5003911;28;99994;-69
2023/12/01 13:49:37;;;;;;;6.47;2.58;;;;;;;;;;4986544;28;99616;-69
2023/12/01 13:52:04;;;;;;;6.97;2.63;;;;;;;;;;4982594;28;101175;-69
2023/12/01 13:54:30;;;;;;;7.35;2.95;;;;;;;;;;4982986;28;100131;-69
2023/12/01 13:56:57;;;;;;;6.65;2.83;;;;;;;;;;4983111;28;98878;-69
2023/12/01 13:59:24;;;;;;;;;;;;;;;;;;4984130;28;99204;-70
2023/12/01 14:01:50;;;;;;;7.90;2.90;;;;;;;;;;4982984;28;112156;-69
2023/12/01 14:04:17;;;;;;;6.18;2.60;;;;;;;;;;4986316;28;98957;-70
2023/12/01 14:06:46;;;;;;;7.15;3.03;;;;;;;;;;4982355;28;98318;-70
2023/12/01 14:09:14;;;;;;;6.43;2.75;;;;;;;;;;4982698;28;98570;-70
2023/12/01 14:11:40;;;;;;;7.10;2.80;;;;;;;;;;4982136;28;100153;-70
2023/12/01 14:14:07;;;;;;;6.75;2.70;;;;;;;;;;4964134;28;100025;-70
2023/12/01 14:16:33;;;;;;;6.90;2.55;;;;;;;;;;4981816;28;98913;-69
2023/12/01 14:19:00;;;;;;;6.60;2.72;;;;;;;;;;4994019;28;100177;-70
2023/12/01 14:21:27;;;;;;;6.82;2.83;;;;;;;;;;5002107;28;99729;-70
2023/12/01 14:23:54;;;;;;;6.40;2.80;;;;;;;;;;5002046;28;98944;-70
2023/12/01 14:26:21;;;;;;;6.68;2.85;;;;;;;;;;5006677;28;99161;-70
2023/12/01 14:28:47;;;;;;;6.22;2.65;;;;;;;;;;5005361;28;98680;-70
2023/12/01 14:31:14;;;;;;;7.63;2.75;;;;;;;;;;5012275;28;99045;-70
2023/12/01 14:33:40;;;;;;;6.88;2.75;;;;;;;;;;5005762;28;99104;-69
2023/12/01 14:36:07;;;;;;;6.70;2.80;;;;;;;;;;5002897;28;98803;-70
2023/12/01 14:38:34;;;;;;;6.47;2.85;;;;;;;;;;4982159;28;99905;-70